createdAt,value
2023-05-08T00:02:25.685Z,98.80
2023-05-08T00:07:28.736Z,100.00
2023-05-08T00:12:31.749Z,100.00
2023-05-08T00:17:36.212Z,100.00
2023-05-08T00:22:39.491Z,100.00
2023-05-08T00:27:42.805Z,99.71
2023-05-08T00:32:47.495Z,99.83
2023-05-08T00:37:50.614Z,100.00
2023-05-08T00:42:54.028Z,99.70
2023-05-08T00:47:58.680Z,99.51
2023-05-08T00:53:04.129Z,99.21
2023-05-08T00:58:07.990Z,99.32
2023-05-08T01:03:13.473Z,99.63
2023-05-08T01:08:16.854Z,98.89
2023-05-08T01:13:36.139Z,98.78
2023-05-08T01:18:46.741Z,99.80
2023-05-08T01:24:20.246Z,99.28
2023-05-08T01:29:44.795Z,100.00
2023-05-08T01:34:56.998Z,99.45
2023-05-08T01:40:08.992Z,99.26
2023-05-08T01:45:17.759Z,100.00
2023-05-08T01:50:31.067Z,100.00
2023-05-08T01:55:37.635Z,100.00
2023-05-08T02:00:42.400Z,100.00
2023-05-08T02:05:50.029Z,100.00
2023-05-08T02:10:55.154Z,100.00
2023-05-08T02:16:00.502Z,100.00
2023-05-08T02:21:06.346Z,100.00
2023-05-08T02:26:10.812Z,100.00
2023-05-08T02:31:14.837Z,100.00
2023-05-08T02:36:20.865Z,100.00
2023-05-08T02:41:27.520Z,100.00
2023-05-08T02:46:40.913Z,100.00
2023-05-08T02:51:54.756Z,100.00
2023-05-08T02:57:01.241Z,100.00
2023-05-08T03:02:10.682Z,100.00
2023-05-08T03:07:16.355Z,100.00
2023-05-08T03:12:23.055Z,100.00
2023-05-08T03:17:29.065Z,100.00
2023-05-08T03:22:35.556Z,100.00
2023-05-08T03:27:39.401Z,100.00
2023-05-08T03:32:45.070Z,100.00
2023-05-08T03:37:49.957Z,100.00
2023-05-08T03:42:53.981Z,100.00
2023-05-08T03:47:59.188Z,100.00
2023-05-08T03:53:03.713Z,100.00
2023-05-08T03:58:18.970Z,100.00
2023-05-08T04:03:26.045Z,100.00
2023-05-08T04:08:35.443Z,100.00
2023-05-08T04:13:44.667Z,100.00
2023-05-08T04:18:50.748Z,100.00
2023-05-08T04:23:58.046Z,100.00
2023-05-08T04:29:01.284Z,100.00
2023-05-08T04:34:04.677Z,100.00
2023-05-08T04:39:09.067Z,100.00
2023-05-08T04:44:12.871Z,100.00
2023-05-08T04:49:15.883Z,100.00
2023-05-08T04:54:20.499Z,100.00
2023-05-08T04:59:24.985Z,100.00
2023-05-08T05:04:28.174Z,100.00
2023-05-08T05:09:37.054Z,100.00
2023-05-08T05:14:40.368Z,100.00
2023-05-08T05:19:43.372Z,100.00
2023-05-08T05:24:47.728Z,100.00
2023-05-08T05:29:50.737Z,100.00
2023-05-08T05:34:54.354Z,100.00
2023-05-08T05:39:58.722Z,100.00
2023-05-08T05:45:01.898Z,100.00
2023-05-08T05:50:05.494Z,100.00
2023-05-08T05:55:10.691Z,100.00
2023-05-08T06:00:14.372Z,100.00
2023-05-08T06:05:19.032Z,100.00
2023-05-08T06:10:23.581Z,100.00
2023-05-08T06:15:26.765Z,100.00
2023-05-08T06:20:29.751Z,100.00
2023-05-08T06:25:34.321Z,100.00
2023-05-08T06:30:37.842Z,100.00
2023-05-08T06:35:40.939Z,100.00
2023-05-08T06:40:45.947Z,100.00
2023-05-08T06:45:48.976Z,100.00
2023-05-08T06:50:52.316Z,100.00
2023-05-08T06:55:57.736Z,100.00
2023-05-08T07:01:01.567Z,100.00
2023-05-08T07:06:04.865Z,100.00
2023-05-08T07:11:09.970Z,100.00
2023-05-08T07:16:13.349Z,100.00
2023-05-08T07:21:18.021Z,100.00
2023-05-08T07:26:22.446Z,100.00
2023-05-08T07:31:26.386Z,100.00
2023-05-08T07:36:29.460Z,100.00
2023-05-08T07:41:33.839Z,100.00
2023-05-08T07:46:37.379Z,100.00
2023-05-08T07:51:41.727Z,100.00
2023-05-08T07:56:46.418Z,100.00
2023-05-08T08:01:49.876Z,100.00
2023-05-08T08:06:53.279Z,100.00
2023-05-08T08:11:58.042Z,100.00
2023-05-08T08:17:01.512Z,100.00
2023-05-08T08:22:04.698Z,100.00
2023-05-08T08:27:09.586Z,100.00
2023-05-08T08:32:12.645Z,100.00
2023-05-08T08:37:15.666Z,100.00
2023-05-08T08:42:20.114Z,100.00
2023-05-08T08:47:27.359Z,100.00
2023-05-08T08:52:32.955Z,100.00
2023-05-08T08:57:40.605Z,100.00
2023-05-08T09:02:43.896Z,100.00
2023-05-08T09:07:48.639Z,100.00
2023-05-08T09:12:53.525Z,100.00
2023-05-08T09:17:56.680Z,100.00
2023-05-08T09:23:02.490Z,100.00
2023-05-08T09:28:18.286Z,100.00
2023-05-08T09:33:23.113Z,100.00
2023-05-08T09:38:37.132Z,100.00
2023-05-08T09:43:43.139Z,100.00
2023-05-08T09:48:46.229Z,100.00
2023-05-08T09:53:52.936Z,100.00
2023-05-08T09:58:57.398Z,100.00
2023-05-08T10:04:01.282Z,100.00
2023-05-08T10:09:08.498Z,100.00
2023-05-08T10:14:13.273Z,100.00
2023-05-08T10:19:18.439Z,100.00
2023-05-08T10:24:27.155Z,100.00
2023-05-08T10:29:38.163Z,100.00
2023-05-08T10:34:42.542Z,100.00
2023-05-08T10:39:46.738Z,100.00
2023-05-08T10:44:51.723Z,100.00
2023-05-08T10:50:02.702Z,98.32
2023-05-08T10:55:21.070Z,100.00
2023-05-08T11:00:25.476Z,97.69
2023-05-08T11:05:28.646Z,96.16
2023-05-08T11:10:33.163Z,92.86
2023-05-08T11:15:38.707Z,93.44
2023-05-08T11:20:42.974Z,91.59
2023-05-08T11:25:46.057Z,93.30
2023-05-08T11:30:54.854Z,90.54
2023-05-08T11:35:59.069Z,90.84
2023-05-08T11:41:06.968Z,94.90
2023-05-08T11:46:16.479Z,94.52
2023-05-08T11:51:20.724Z,91.08
2023-05-08T11:56:23.904Z,90.59
2023-05-08T12:01:28.740Z,83.46
2023-05-08T12:06:33.228Z,93.48
2023-05-08T12:11:36.820Z,89.38
2023-05-08T12:16:42.072Z,89.08
2023-05-08T12:21:49.028Z,89.90
2023-05-08T12:26:55.609Z,90.20
2023-05-08T12:32:00.391Z,87.16
2023-05-08T12:37:04.581Z,90.46
2023-05-08T12:42:07.701Z,89.69
2023-05-08T12:47:12.201Z,89.53
2023-05-08T12:52:15.592Z,85.02
2023-05-08T12:57:22.506Z,89.12
2023-05-08T13:02:27.157Z,89.95
2023-05-08T13:07:32.766Z,91.58
2023-05-08T13:12:35.852Z,89.15
2023-05-08T13:17:40.380Z,89.79
2023-05-08T13:22:43.425Z,85.77
2023-05-08T13:27:46.501Z,91.51
2023-05-08T13:32:51.639Z,85.35
2023-05-08T13:37:55.057Z,83.29
2023-05-08T13:42:58.140Z,79.89
2023-05-08T13:48:03.490Z,79.54
2023-05-08T13:53:07.305Z,82.06
2023-05-08T13:58:10.801Z,81.28
2023-05-08T14:03:15.659Z,79.62
2023-05-08T14:08:18.992Z,78.42
2023-05-08T14:13:22.752Z,78.91
2023-05-08T14:18:27.434Z,78.96
2023-05-08T14:23:30.872Z,75.43
2023-05-08T14:28:34.309Z,76.35
2023-05-08T14:33:39.103Z,76.28
2023-05-08T14:38:42.189Z,78.61
2023-05-08T14:43:45.313Z,76.21
2023-05-08T14:48:49.674Z,78.96
2023-05-08T14:53:52.823Z,76.62
2023-05-08T14:58:55.957Z,76.67
2023-05-08T15:04:00.535Z,77.20
2023-05-08T15:09:03.804Z,78.66
2023-05-08T15:14:06.904Z,71.60
2023-05-08T15:19:11.278Z,76.95
2023-05-08T15:24:14.296Z,74.05
2023-05-08T15:29:17.678Z,77.69
2023-05-08T15:34:23.309Z,75.38
2023-05-08T15:39:28.071Z,75.25
2023-05-08T15:44:41.627Z,77.02
2023-05-08T15:49:55.581Z,76.41
2023-05-08T15:54:58.650Z,70.10
2023-05-08T16:00:01.677Z,73.33
2023-05-08T16:05:06.690Z,73.52
2023-05-08T16:10:10.868Z,72.64
2023-05-08T16:15:14.288Z,73.13
2023-05-08T16:20:18.910Z,74.89
2023-05-08T16:25:22.205Z,72.34
2023-05-08T16:30:25.308Z,74.99
2023-05-08T16:35:30.124Z,73.64
2023-05-08T16:40:33.187Z,75.21
2023-05-08T16:45:36.649Z,74.91
2023-05-08T16:50:41.040Z,75.20
2023-05-08T16:55:44.243Z,75.04
2023-05-08T17:00:47.349Z,77.38
2023-05-08T17:05:52.089Z,80.31
2023-05-08T17:10:55.723Z,78.95
2023-05-08T17:15:59.208Z,82.18
2023-05-08T17:21:03.600Z,81.45
2023-05-08T17:26:06.728Z,85.92
2023-05-08T17:31:10.203Z,88.66
2023-05-08T17:36:14.562Z,93.29
2023-05-08T17:41:17.593Z,97.70
2023-05-08T17:46:20.991Z,100.00
2023-05-08T17:51:25.508Z,100.00
2023-05-08T17:56:29.943Z,100.00
2023-05-08T18:01:34.733Z,100.00
2023-05-08T18:06:39.604Z,100.00
2023-05-08T18:11:42.652Z,100.00
2023-05-08T18:16:45.684Z,100.00
2023-05-08T18:21:50.106Z,100.00
2023-05-08T18:26:53.583Z,100.00
2023-05-08T18:31:56.942Z,100.00
2023-05-08T18:37:01.667Z,100.00
2023-05-08T18:42:04.930Z,100.00
2023-05-08T18:47:08.401Z,100.00
2023-05-08T18:52:14.910Z,100.00
2023-05-08T18:57:18.624Z,100.00
2023-05-08T19:02:24.476Z,100.00
2023-05-08T19:07:28.910Z,100.00
2023-05-08T19:12:32.527Z,100.00
2023-05-08T19:17:36.801Z,100.00
2023-05-08T19:22:41.476Z,100.00
2023-05-08T19:27:44.582Z,100.00
2023-05-08T19:32:47.654Z,100.00
2023-05-08T19:37:52.027Z,100.00
2023-05-08T19:42:55.060Z,100.00
2023-05-08T19:47:58.186Z,100.00
2023-05-08T19:53:02.563Z,100.00
2023-05-08T19:58:05.565Z,100.00
2023-05-08T20:03:08.672Z,100.00
2023-05-08T20:08:13.144Z,100.00
2023-05-08T20:13:16.652Z,100.00
2023-05-08T20:18:19.664Z,100.00
2023-05-08T20:23:24.127Z,100.00
2023-05-08T20:28:27.161Z,100.00
2023-05-08T20:33:30.508Z,100.00
2023-05-08T20:38:36.371Z,100.00
2023-05-08T20:43:39.535Z,100.00
2023-05-08T20:48:42.874Z,100.00
2023-05-08T20:53:47.229Z,100.00
2023-05-08T20:58:50.292Z,100.00
2023-05-08T21:03:53.320Z,100.00
2023-05-08T21:08:58.753Z,100.00
2023-05-08T21:14:01.785Z,100.00
2023-05-08T21:19:05.114Z,100.00
2023-05-08T21:24:10.169Z,100.00
2023-05-08T21:29:13.545Z,100.00
2023-05-08T21:34:17.128Z,100.00
2023-05-08T21:39:21.937Z,100.00
2023-05-08T21:44:25.252Z,100.00
2023-05-08T21:49:28.655Z,100.00
2023-05-08T21:54:33.208Z,100.00
2023-05-08T21:59:36.646Z,100.00
2023-05-08T22:04:39.927Z,100.00
2023-05-08T22:09:44.698Z,100.00
2023-05-08T22:14:48.104Z,100.00
2023-05-08T22:19:51.508Z,100.00
2023-05-08T22:24:56.495Z,100.00
2023-05-08T22:30:01.080Z,100.00
2023-05-08T22:35:04.677Z,100.00
2023-05-08T22:40:10.882Z,100.00
2023-05-08T22:45:15.405Z,100.00
2023-05-08T22:50:19.304Z,100.00
2023-05-08T22:55:24.122Z,100.00
2023-05-08T23:00:27.357Z,100.00
2023-05-08T23:05:30.844Z,100.00
2023-05-08T23:10:35.752Z,100.00
2023-05-08T23:15:38.824Z,100.00
2023-05-08T23:20:41.931Z,100.00
2023-05-08T23:25:46.279Z,100.00
2023-05-08T23:30:49.285Z,100.00
2023-05-08T23:35:52.603Z,100.00
2023-05-08T23:40:57.001Z,100.00
2023-05-08T23:46:00.165Z,100.00
2023-05-08T23:51:03.236Z,100.00
2023-05-08T23:56:08.578Z,100.00
